Terminal Aerodrome Forecast
Issued by NWS Paducah, KY

Home | Current Version | Previous Version | Text Only | Print | Product List | Glossary On
Versions: 1 2 3 4 5 6 7 8 9 10 11 12 13 14 15 16 17
089
FTUS43 KPAH 160520
TAFPAH
TAF
KPAH 160520Z 1606/1706 VRB03KT P6SM SCT040 BKN070
     FM161000 VRB02KT P6SM SCT025 BKN040
      TEMPO 1610/1612 5SM BR SCT040
     FM161500 20007KT P6SM VCSH SCT015 BKN030
     FM162100 21010KT P6SM BKN025
     FM170100 19006KT P6SM BKN030=

USA.gov is the U.S. government's official web portal to all federal, state and local government web resources and services.